KMDT

Harrisburg International Airport

Harrisburg, Pennsylvania, USA
METAR KMDT 271156Z 30005KT 10SM SCT055 BKN110 BKN200 23/19 A2990 RMK AO2 SLP124 60000 T02280194 10239 20211 53013
Observed Flight Rules
May-27 @ 11:56 UTC (11 minutes ago) Visual Flight Rules
Wind Visibility Clouds
300° at 5 knots 10 miles
  • Scattered at 5,500' AGL
  • Broken at 11,000' AGL
  • Broken at 20,000' AGL
Temperatures Readings
Current 23°C / 73°F
Dewpoint 19°C / 66°F
Humidity 78%
Altimeter 29.9" Hg
Pressure 1012.4 hPa
Elevation 95
METAR KMDT 271156Z 30005KT 10SM SCT055 BKN110 BKN200 23/19 A2990 RMK AO2 SLP124 60000 T02280194 10239 20211 53013
Observed Flight Rules
May-27 @ 11:56 UTC
(11 minutes ago)
VFR
Wind Visibility
300° at 5 knots 10 miles
Clouds
  • Scattered at 5,500' AGL
  • Broken at 11,000' AGL
  • Broken at 20,000' AGL
Temperature Dewpoint
23°C / 73°F 19°C / 66°F
Humidity Altimeter Pressure
78% 29.9" Hg 1012.4 hPa